Ulyanovsk, Russia
Current Conditions -  °F | °C
As of 8:00 PM on Friday 19 Dec 2014 (Local Time) from UWLW Reporting Station
Overcast Overcast  
Wind Chill: 19°   Ceiling: 2800
Heat Index: 25°   Visibility: 3mi
Dew Point: 23°   Wind: 4mph
Humidity: 93%   Direction: 190°S
Pressure: 29.91"   Gusts: NA
Location:  54.33°N, 48.4°E
Report Text: UWLW 191700Z 19002MPS P5000 OVC028 M04/M05 Q1013 20850345 NOSIGRMK QFE754
Loading
Personal Weather Stations






























Interactive Weather Map New forecast layout! Learn more

10-Day Weather Forecast

Advertisements
Track Severe Weather on mobile